Adana Bolge, Turkey

9:43 PM EEST on September 01, 2014 (GMT +0300)
Adana | Change Station
CLOSE
Current Station
Airport
Location: Adana,
Elevation: 66 ft
Nearby Weather Stations

Elev 66 ft 36.98 °N, 35.30 °E | Updated 23 minutes ago

Scattered Clouds
Scattered Clouds
82 °F
Feels Like 90 °F
N
4
Wind Variable Wind from South

Today
High -- | Low -- °F
--% Chance of Precip.
Yesterday
High -- | Low -- °F
Precip. -- in
6:09 AM 7:07 PM
Waxing Crescent, 43% visible
Pressure 29.68 in
Visibility 6.2 miles
Clouds Scattered Clouds 3500 ft
Heat Index 90 °F
Dew Point 75 °F
Humidity 79%
Rainfall 0.00 in
Snow Depth Not available.
UV 0 out of 12
Pollen Not available.
Air Quality Not available.
Flu Activity Not available.
METAR LTAF 011820Z 17003KT 9999 SCT035 28/24 Q1005 NOSIG RMK RWY23 20004KT

More Conditions Fewer Conditions

Pressure 29.68 in
Visibility 6.2 miles
Clouds Scattered Clouds 3500 ft
Heat Index 90 °F
Dew Point 75 °F
Humidity 79%
Rainfall 0.00 in
Snow Depth Not available.
UV 0 out of 12
Pollen Not available.
Air Quality Not available.
Flu Activity Not available.
METAR LTAF 011820Z 17003KT 9999 SCT035 28/24 Q1005 NOSIG RMK RWY23 20004KT

More Conditions Fewer Conditions

10-Day Weather Forecast

Almanac

Astronomy

Sep. 01, 2014 Rise Set
Actual Time 6:09 AM EEST 7:07 PM EEST
Civil Twilight 5:42 AM EEST 7:34 PM EEST
Nautical Twilight 5:11 AM EEST 8:05 PM EEST
Astronomical Twilight 4:38 AM EEST 8:38 PM EEST
Moon 12:24 PM EEST 11:01 PM EEST
Length of Visible Light 13h 51m
Length of Day
12h 58m
Tomorrow will be 2m 16s shorter.
Waxing Crescent, 43% of the Moon is Illuminated
Today
Waxing Crescent
Sep 2
First Quarter
Sep 8
Full
Sep 15
Last Quarter
Sep 24
New

Today's Extremes

Country Highs Country Lows

Community

WunderPhotos

Upload Photos

1,749,359 photos uploaded!

Nearby

Snow Depth

Not available.

Earthquake Activity

City Distance Mag. Time & Date
No recent earthquake activity has been reported nearby.
Minimum magnitude displayed is 2.5.

Coastal Water Temperatures

Place Temperature
No Stations Reporting

Nearby Weather Stations